Time;durP1;ratioP1;P1;durP2;ratioP2;P2;SDS_P1;SDS_P2;PMS_P1;PMS_P2;Temp;Humidity;BMP_temperature;BMP_pressure;BME280_temperature;BME280_humidity;BME280_pressure;Samples;Min_cycle;Max_cycle;Signal;HPM_P1;HPM_P2
2021/04/24 00:07:18;;;;;;;14.80;6.72;;;7.70;99.90;;;;;;6753261;87;20369;-77
2021/04/24 00:17:19;;;;;;;13.62;6.75;;;7.40;99.90;;;;;;6753757;87;20612;-77
2021/04/24 00:27:19;;;;;;;16.50;7.80;;;7.40;99.90;;;;;;6752715;87;20197;-77
2021/04/24 00:37:20;;;;;;;12.35;6.43;;;7.10;99.90;;;;;;6757253;87;20667;-77
2021/04/24 00:47:22;;;;;;;14.48;6.80;;;6.90;99.90;;;;;;6762240;87;20201;-76
2021/04/24 00:57:23;;;;;;;14.75;5.53;;;6.80;99.90;;;;;;6761155;87;20257;-77
2021/04/24 01:07:24;;;;;;;10.73;5.43;;;6.80;99.90;;;;;;6754900;87;20278;-77
2021/04/24 01:17:25;;;;;;;12.80;5.18;;;6.80;99.90;;;;;;6752897;87;20193;-77
2021/04/24 01:27:26;;;;;;;13.65;5.07;;;6.60;99.90;;;;;;6749968;87;20672;-76
2021/04/24 01:37:27;;;;;;;12.50;5.07;;;6.30;99.90;;;;;;6747136;87;20730;-78
2021/04/24 01:47:28;;;;;;;16.00;6.03;;;6.30;99.90;;;;;;6751665;87;20211;-77
2021/04/24 01:57:28;;;;;;;10.68;5.53;;;6.30;99.90;;;;;;6751177;87;20696;-77
2021/04/24 02:07:29;;;;;;;12.18;5.53;;;6.20;99.90;;;;;;6755572;87;20698;-77
2021/04/24 02:17:29;;;;;;;11.75;5.40;;;6.10;99.90;;;;;;6757756;87;20189;-77
2021/04/24 02:27:31;;;;;;;13.40;5.72;;;6.00;99.90;;;;;;6756708;88;20685;-76
2021/04/24 02:37:32;;;;;;;11.60;5.60;;;5.80;99.90;;;;;;6748487;87;20272;-76
2021/04/24 02:47:34;;;;;;;13.88;5.95;;;5.60;99.90;;;;;;6752092;87;20835;-76
2021/04/24 02:57:34;;;;;;;14.65;6.25;;;5.60;99.90;;;;;;6752053;87;20688;-76
2021/04/24 03:07:35;;;;;;;13.55;5.78;;;5.60;99.90;;;;;;6749812;87;20180;-76
2021/04/24 03:17:36;;;;;;;14.38;6.37;;;5.30;99.90;;;;;;6750995;87;20244;-76
2021/04/24 03:27:37;;;;;;;12.40;5.30;;;5.20;99.90;;;;;;6747640;88;20715;-76
2021/04/24 03:37:38;;;;;;;13.88;5.68;;;5.00;99.90;;;;;;6750517;87;20650;-76
2021/04/24 03:47:38;;;;;;;16.27;6.07;;;4.90;99.90;;;;;;6753050;88;20608;-76
2021/04/24 03:57:39;;;;;;;13.13;6.03;;;4.80;99.90;;;;;;6752452;88;20198;-77
2021/04/24 04:07:40;;;;;;;15.40;6.57;;;4.90;99.90;;;;;;6752338;87;20260;-77
2021/04/24 04:17:41;;;;;;;13.48;5.72;;;4.80;99.90;;;;;;6755317;87;20197;-77
2021/04/24 04:27:42;;;;;;;12.05;6.30;;;4.80;99.90;;;;;;6753380;88;20632;-77
2021/04/24 04:37:43;;;;;;;15.25;6.68;;;4.70;99.90;;;;;;6754534;87;20267;-77
2021/04/24 04:47:45;;;;;;;13.93;6.32;;;4.60;99.90;;;;;;6749108;88;20200;-77
2021/04/24 04:57:46;;;;;;;15.93;6.25;;;4.60;99.90;;;;;;6753724;87;20198;-77
2021/04/24 05:07:49;;;;;;;12.75;5.95;;;4.70;99.90;;;;;;6756613;87;20187;-77
2021/04/24 05:17:50;;;;;;;16.45;6.35;;;5.00;99.90;;;;;;6753467;87;20208;-77
2021/04/24 05:27:50;;;;;;;14.18;6.15;;;5.30;99.90;;;;;;6754990;87;20206;-77
2021/04/24 05:37:52;;;;;;;13.40;5.80;;;5.50;99.90;;;;;;6749106;87;20286;-76
2021/04/24 05:47:52;;;;;;;13.13;6.25;;;5.70;99.90;;;;;;6755669;87;20305;-77
2021/04/24 05:57:53;;;;;;;13.55;6.00;;;5.90;99.90;;;;;;6754447;87;20448;-76
2021/04/24 06:07:53;;;;;;;14.30;5.90;;;6.40;99.90;;;;;;6761502;87;20228;-77
2021/04/24 06:17:54;;;;;;;11.18;4.57;;;7.00;99.90;;;;;;6759554;87;20500;-76
2021/04/24 06:27:55;;;;;;;10.93;4.30;;;7.50;99.90;;;;;;6772427;87;20191;-77
2021/04/24 06:48:58;;;;;;;10.52;4.78;;;7.90;99.90;;;;;;6763968;87;20188;-78
2021/04/24 06:58:58;;;;;;;12.23;5.00;;;8.10;99.90;;;;;;6762847;87;20199;-78
2021/04/24 07:08:59;;;;;;;9.50;4.55;;;8.70;99.90;;;;;;6770157;88;20296;-80
2021/04/24 07:19:00;;;;;;;12.20;5.20;;;9.20;99.90;;;;;;6765116;88;20188;-81
2021/04/24 07:29:01;;;;;;;13.23;4.65;;;9.80;99.90;;;;;;6778818;87;20695;-81
2021/04/24 07:39:01;;;;;;;11.45;4.80;;;10.40;99.90;;;;;;6773455;87;20199;-82
2021/04/24 07:49:02;;;;;;;10.63;4.30;;;11.00;99.90;;;;;;6780503;87;20199;-82
2021/04/24 07:59:06;;;;;;;11.90;4.32;;;12.00;97.10;;;;;;6770246;87;20205;-81
2021/04/24 08:09:07;;;;;;;11.75;4.57;;;12.50;95.30;;;;;;6762779;88;20184;-80
2021/04/24 08:19:07;;;;;;;11.82;4.57;;;12.60;94.80;;;;;;6760892;88;20187;-81
2021/04/24 08:29:08;;;;;;;8.20;4.22;;;13.20;92.40;;;;;;6778838;87;20195;-79
2021/04/24 08:39:08;;;;;;;8.07;3.65;;;14.20;90.10;;;;;;6773944;87;20161;-80
2021/04/24 08:49:09;;;;;;;8.30;3.87;;;14.40;85.20;;;;;;6757953;88;20183;-75
2021/04/24 08:59:10;;;;;;;6.95;3.33;;;14.60;85.00;;;;;;6746135;87;20218;-76
2021/04/24 09:09:12;;;;;;;6.87;3.53;;;15.30;82.00;;;;;;6742803;88;20234;-78
2021/04/24 09:19:35;;;;;;;6.10;3.08;;;15.30;80.70;;;;;;6745600;88;20497;-79
2021/04/24 09:29:35;;;;;;;6.25;2.37;;;16.00;76.90;;;;;;6766293;88;20172;-80
2021/04/24 09:39:50;;;;;;;5.30;2.60;;;16.60;73.90;;;;;;6765796;88;20209;-80
2021/04/24 09:49:51;;;;;;;6.23;2.50;;;17.10;70.30;;;;;;6745545;88;20198;-81
2021/04/24 09:59:54;;;;;;;4.53;2.20;;;17.50;69.50;;;;;;6761004;88;20695;-80
2021/04/24 10:09:55;;;;;;;4.47;2.47;;;17.70;66.60;;;;;;6766194;87;20558;-80
2021/04/24 10:19:56;;;;;;;4.68;2.40;;;17.70;65.20;;;;;;6748774;88;20232;-80
2021/04/24 10:29:57;;;;;;;5.40;2.42;;;17.50;64.10;;;;;;6751057;88;20256;-81
2021/04/24 10:40:02;;;;;;;6.05;2.37;;;17.20;66.60;;;;;;6754566;87;20274;-80
2021/04/24 10:50:08;;;;;;;7.87;2.80;;;18.70;64.20;;;;;;6757881;88;20691;-79
2021/04/24 11:00:13;;;;;;;6.22;2.85;;;19.90;63.40;;;;;;6749504;87;20291;-77
2021/04/24 11:10:14;;;;;;;4.85;2.78;;;19.30;60.90;;;;;;6744559;87;20313;-77
2021/04/24 11:20:56;;;;;;;6.82;3.00;;;19.60;60.40;;;;;;6739351;87;20287;-75
2021/04/24 11:31:00;;;;;;;6.03;3.03;;;19.40;59.50;;;;;;6739293;88;20329;-75
2021/04/24 11:41:30;;;;;;;6.43;3.30;;;18.90;66.40;;;;;;6740746;88;20241;-77
2021/04/24 11:51:46;;;;;;;7.93;3.30;;;18.10;62.80;;;;;;6744115;88;20180;-74
2021/04/24 12:01:46;;;;;;;6.85;3.92;;;19.40;61.00;;;;;;6750712;88;20212;-79
2021/04/24 12:12:14;;;;;;;7.13;3.80;;;19.90;60.20;;;;;;6749063;88;20238;-79
2021/04/24 12:22:21;;;;;;;6.53;3.55;;;20.70;59.60;;;;;;6715824;88;20536;-78
2021/04/24 12:32:24;;;;;;;7.85;3.20;;;21.00;58.20;;;;;;6708684;88;20197;-77
2021/04/24 12:42:25;;;;;;;8.70;3.20;;;21.60;56.20;;;;;;6730161;88;20192;-79
2021/04/24 12:52:39;;;;;;;4.62;3.08;;;22.40;53.90;;;;;;6758180;88;20206;-78
2021/04/24 13:02:40;;;;;;;5.07;2.70;;;21.80;52.90;;;;;;6766284;88;20282;-78
2021/04/24 13:12:51;;;;;;;4.40;2.60;;;21.60;53.10;;;;;;6782391;87;20188;-78
2021/04/24 13:22:53;;;;;;;5.95;3.00;;;22.50;53.40;;;;;;6778876;87;20165;-76
2021/04/24 13:32:58;;;;;;;5.07;2.42;;;21.30;50.40;;;;;;6773888;87;20207;-80
2021/04/24 13:42:59;;;;;;;5.97;2.78;;;21.50;50.50;;;;;;6782908;87;20271;-80
2021/04/24 13:53:00;;;;;;;4.30;2.40;;;22.00;51.80;;;;;;6779610;87;20182;-78
2021/04/24 14:03:01;;;;;;;5.35;2.40;;;22.50;50.60;;;;;;6756616;88;20247;-82
2021/04/24 14:13:02;;;;;;;7.13;2.63;;;21.40;50.20;;;;;;6751157;88;20418;-82
2021/04/24 14:23:03;;;;;;;6.65;3.03;;;21.60;52.70;;;;;;6750238;88;20196;-82
2021/04/24 14:33:03;;;;;;;5.62;2.80;;;21.30;53.20;;;;;;6748214;88;20256;-79
2021/04/24 14:43:04;;;;;;;6.87;2.90;;;21.80;52.10;;;;;;6755216;87;20313;-80
2021/04/24 14:53:04;;;;;;;8.90;2.83;;;21.70;52.30;;;;;;6752379;87;20216;-78
2021/04/24 15:03:05;;;;;;;5.47;2.58;;;21.80;52.60;;;;;;6756377;88;20505;-78
2021/04/24 15:13:06;;;;;;;8.45;3.20;;;21.40;52.50;;;;;;6751472;87;20633;-76
2021/04/24 15:23:06;;;;;;;6.05;2.70;;;20.50;53.40;;;;;;6744011;87;20188;-76
2021/04/24 15:33:11;;;;;;;6.32;2.60;;;20.20;54.50;;;;;;6752459;87;20640;-77
2021/04/24 15:43:12;;;;;;;9.43;2.83;;;20.40;53.80;;;;;;6748439;88;20302;-76
2021/04/24 15:53:12;;;;;;;6.28;2.87;;;20.60;54.20;;;;;;6754279;87;20306;-77
2021/04/24 16:03:13;;;;;;;7.68;2.97;;;19.70;54.90;;;;;;6757468;88;20590;-77
2021/04/24 16:13:14;;;;;;;4.62;2.67;;;19.50;55.10;;;;;;6754281;87;20265;-77
2021/04/24 16:23:14;;;;;;;5.12;2.20;;;19.00;53.70;;;;;;6748300;87;20256;-75
2021/04/24 16:33:15;;;;;;;6.37;2.70;;;19.40;54.30;;;;;;6744417;88;20330;-77
2021/04/24 16:43:15;;;;;;;23.58;14.73;;;18.80;54.60;;;;;;6743275;88;20505;-77
2021/04/24 16:53:16;;;;;;;7.15;3.55;;;18.50;56.10;;;;;;6748173;88;20225;-77
2021/04/24 17:03:17;;;;;;;15.43;8.32;;;18.10;57.40;;;;;;6743979;88;20786;-77
2021/04/24 17:13:17;;;;;;;11.73;6.68;;;17.30;57.80;;;;;;6741468;88;20280;-77
2021/04/24 17:23:18;;;;;;;13.45;8.25;;;17.10;58.60;;;;;;6736968;88;20244;-77
2021/04/24 17:33:19;;;;;;;5.60;3.10;;;17.20;58.00;;;;;;6737015;88;20188;-77
2021/04/24 17:43:20;;;;;;;7.10;3.55;;;16.90;59.40;;;;;;6736787;88;20180;-77
2021/04/24 17:53:20;;;;;;;7.35;3.50;;;15.90;61.50;;;;;;6740472;87;20200;-77
2021/04/24 18:03:21;;;;;;;8.30;3.75;;;15.00;63.80;;;;;;6736561;88;21009;-76
2021/04/24 18:13:21;;;;;;;6.70;3.47;;;14.40;65.80;;;;;;6737513;88;20205;-77
2021/04/24 18:23:22;;;;;;;9.02;3.58;;;14.10;67.10;;;;;;6737962;88;20945;-77
2021/04/24 18:33:23;;;;;;;10.25;3.70;;;13.70;68.20;;;;;;6738117;88;20226;-76
2021/04/24 18:43:23;;;;;;;10.80;4.20;;;13.20;70.00;;;;;;6736789;88;20201;-78
2021/04/24 18:53:24;;;;;;;9.82;4.25;;;12.90;71.70;;;;;;6741910;88;20215;-78
2021/04/24 19:03:25;;;;;;;9.95;4.30;;;12.60;72.50;;;;;;6747396;88;20822;-77
2021/04/24 19:13:25;;;;;;;8.80;4.20;;;12.50;73.80;;;;;;6744866;87;20721;-77
2021/04/24 19:23:26;;;;;;;11.90;4.50;;;12.20;75.70;;;;;;6748192;88;20185;-76
2021/04/24 19:33:28;;;;;;;10.50;4.30;;;12.00;77.40;;;;;;6759072;87;20222;-77
2021/04/24 19:43:28;;;;;;;10.77;5.00;;;11.80;79.20;;;;;;6750984;88;20201;-77
2021/04/24 19:53:29;;;;;;;9.63;4.78;;;11.70;81.50;;;;;;6745568;87;20203;-76
2021/04/24 20:03:30;;;;;;;12.00;4.80;;;11.50;83.70;;;;;;6742035;88;20188;-77
2021/04/24 20:13:30;;;;;;;9.55;4.60;;;11.30;86.70;;;;;;6744570;87;21024;-77
2021/04/24 20:23:31;;;;;;;8.38;4.55;;;11.30;87.90;;;;;;6748418;87;20189;-77
2021/04/24 20:33:31;;;;;;;11.25;4.50;;;11.10;89.70;;;;;;6754434;87;20184;-77
2021/04/24 20:43:32;;;;;;;12.93;5.40;;;10.90;90.60;;;;;;6752127;87;20218;-77
2021/04/24 20:53:33;;;;;;;15.38;5.05;;;10.60;91.90;;;;;;6749394;88;20180;-77
2021/04/24 21:03:37;;;;;;;10.95;4.60;;;10.60;92.70;;;;;;6750199;87;20205;-77
2021/04/24 21:13:37;;;;;;;11.07;4.90;;;10.40;93.40;;;;;;6754777;88;20197;-76
2021/04/24 21:23:38;;;;;;;12.37;5.00;;;10.30;94.10;;;;;;6755722;88;20227;-76
2021/04/24 21:33:38;;;;;;;11.17;4.70;;;10.20;94.50;;;;;;6755575;87;20694;-76
2021/04/24 21:43:39;;;;;;;9.43;3.95;;;10.10;95.00;;;;;;6755093;88;20970;-77
2021/04/24 21:53:40;;;;;;;9.32;4.35;;;10.10;95.90;;;;;;6756505;87;20191;-76
2021/04/24 22:03:40;;;;;;;12.10;4.75;;;9.90;96.30;;;;;;6760313;88;20283;-76
2021/04/24 22:13:41;;;;;;;13.52;4.37;;;9.80;97.40;;;;;;6754541;87;20667;-76
2021/04/24 22:23:42;;;;;;;9.80;3.95;;;9.90;97.10;;;;;;6755282;88;20184;-77
2021/04/24 22:33:43;;;;;;;12.55;4.37;;;9.70;96.30;;;;;;6754634;88;20235;-76
2021/04/24 22:43:43;;;;;;;8.50;3.10;;;9.70;96.70;;;;;;6754797;87;20191;-75
2021/04/24 22:53:44;;;;;;;7.70;3.33;;;9.40;97.10;;;;;;6755309;88;20200;-74
2021/04/24 23:03:45;;;;;;;8.27;2.70;;;9.20;97.40;;;;;;6755797;87;20195;-76
2021/04/24 23:13:45;;;;;;;7.18;2.70;;;9.00;96.90;;;;;;6752097;87;20392;-74
2021/04/24 23:23:46;;;;;;;8.97;2.77;;;8.80;97.60;;;;;;6752094;88;20176;-76
2021/04/24 23:33:47;;;;;;;5.68;2.17;;;8.70;97.30;;;;;;6744586;88;21062;-76
2021/04/24 23:43:47;;;;;;;8.23;2.30;;;8.50;97.20;;;;;;6746932;87;20186;-76
2021/04/24 23:53:48;;;;;;;5.35;2.10;;;8.30;97.50;;;;;;6746104;87;20663;-76
